createdAt,value
2023-02-25T00:01:16.606Z,92.43
2023-02-25T00:03:43.775Z,93.08
2023-02-25T00:06:13.419Z,92.21
2023-02-25T00:08:44.306Z,90.63
2023-02-25T00:11:12.725Z,89.33
2023-02-25T00:13:40.994Z,88.43
2023-02-25T00:16:08.368Z,88.33
2023-02-25T00:18:35.406Z,87.13
2023-02-25T00:21:05.234Z,88.54
2023-02-25T00:23:31.779Z,87.31
2023-02-25T00:26:00.218Z,85.03
2023-02-25T00:28:27.428Z,86.26
2023-02-25T00:30:54.414Z,87.80
2023-02-25T00:33:21.275Z,86.95
2023-02-25T00:35:49.940Z,86.53
2023-02-25T00:38:17.511Z,85.60
2023-02-25T00:40:46.116Z,86.55
2023-02-25T00:43:12.739Z,85.79
2023-02-25T00:45:42.574Z,85.22
2023-02-25T00:48:09.265Z,85.70
2023-02-25T00:50:36.093Z,84.55
2023-02-25T00:53:02.930Z,84.38
2023-02-25T00:55:33.273Z,84.78
2023-02-25T00:58:01.266Z,84.70
2023-02-25T01:00:28.409Z,85.76
2023-02-25T01:02:57.428Z,85.12
2023-02-25T01:05:24.910Z,85.84
2023-02-25T01:07:52.746Z,84.82
2023-02-25T01:10:19.652Z,85.20
2023-02-25T01:12:46.558Z,85.16
2023-02-25T01:15:15.087Z,84.43
2023-02-25T01:17:42.800Z,84.56
2023-02-25T01:20:12.658Z,85.13
2023-02-25T01:22:41.709Z,85.73
2023-02-25T01:25:13.916Z,84.99
2023-02-25T01:27:40.469Z,85.60
2023-02-25T01:30:08.270Z,85.99
2023-02-25T01:32:35.425Z,86.09
2023-02-25T01:35:02.266Z,84.52
2023-02-25T01:37:30.077Z,83.72
2023-02-25T01:39:57.115Z,83.75
2023-02-25T01:42:23.948Z,85.03
2023-02-25T01:45:18.982Z,85.77
2023-02-25T01:48:03.207Z,84.63
2023-02-25T01:50:37.416Z,83.10
2023-02-25T01:53:06.040Z,82.40
2023-02-25T01:55:33.451Z,82.17
2023-02-25T01:58:01.232Z,81.59
2023-02-25T02:00:31.499Z,81.39
2023-02-25T02:02:58.567Z,81.99
2023-02-25T02:05:42.589Z,81.74
2023-02-25T02:08:10.044Z,82.03
2023-02-25T02:10:36.556Z,81.54
2023-02-25T02:13:03.726Z,82.19
2023-02-25T02:15:37.763Z,81.96
2023-02-25T02:18:07.402Z,82.27
2023-02-25T02:20:51.310Z,82.48
2023-02-25T02:23:46.787Z,82.96
2023-02-25T02:26:26.310Z,82.48
2023-02-25T02:29:08.922Z,81.64
2023-02-25T02:31:39.795Z,82.39
2023-02-25T02:34:26.575Z,81.57
2023-02-25T02:37:19.292Z,80.86
2023-02-25T02:39:54.668Z,79.24
2023-02-25T02:42:27.376Z,80.01
2023-02-25T02:45:02.569Z,81.55
2023-02-25T02:47:35.165Z,81.30
2023-02-25T02:50:25.772Z,78.43
2023-02-25T02:52:56.393Z,79.50
2023-02-25T02:55:28.195Z,79.54
2023-02-25T02:58:01.242Z,80.71
2023-02-25T03:00:34.265Z,80.57
2023-02-25T03:03:13.338Z,80.77
2023-02-25T03:05:42.721Z,80.56
2023-02-25T03:08:25.278Z,80.93
2023-02-25T03:10:51.953Z,79.88
2023-02-25T03:13:20.772Z,79.28
2023-02-25T03:15:49.100Z,79.86
2023-02-25T03:18:26.192Z,79.17
2023-02-25T03:20:56.050Z,78.91
2023-02-25T03:23:29.134Z,79.54
2023-02-25T03:26:10.684Z,81.01
2023-02-25T03:28:38.319Z,79.06
2023-02-25T03:31:10.263Z,78.46
2023-02-25T03:33:48.457Z,77.75
2023-02-25T03:36:41.149Z,78.47
2023-02-25T03:39:11.874Z,78.44
2023-02-25T03:41:42.533Z,78.40
2023-02-25T03:44:16.041Z,78.45
2023-02-25T03:46:46.018Z,77.41
2023-02-25T03:49:19.098Z,78.13
2023-02-25T03:51:48.961Z,77.62
2023-02-25T03:54:16.626Z,77.07
2023-02-25T03:56:48.258Z,76.49
2023-02-25T03:59:15.743Z,78.91
2023-02-25T04:01:46.542Z,79.66
2023-02-25T04:04:13.229Z,79.95
2023-02-25T04:06:40.431Z,80.04
2023-02-25T04:09:07.491Z,80.50
2023-02-25T04:11:34.053Z,80.06
2023-02-25T04:14:01.190Z,79.37
2023-02-25T04:16:27.694Z,79.67
2023-02-25T04:18:56.199Z,79.54
2023-02-25T04:21:30.124Z,80.35
2023-02-25T04:23:57.029Z,80.05
2023-02-25T04:26:24.538Z,80.49
2023-02-25T04:28:51.634Z,79.43
2023-02-25T04:31:18.527Z,80.16
2023-02-25T04:33:49.274Z,79.57
2023-02-25T04:36:36.118Z,78.85
2023-02-25T04:39:05.277Z,79.27
2023-02-25T04:41:34.373Z,78.87
2023-02-25T04:44:03.782Z,79.15
2023-02-25T04:46:31.276Z,77.15
2023-02-25T04:48:58.372Z,75.83
2023-02-25T04:51:24.966Z,75.42
2023-02-25T04:53:51.586Z,76.00
2023-02-25T04:56:18.346Z,76.95
2023-02-25T04:58:45.290Z,77.00
2023-02-25T05:01:12.818Z,77.00
2023-02-25T05:03:39.776Z,78.17
2023-02-25T05:06:07.342Z,78.13
2023-02-25T05:08:35.241Z,78.82
2023-02-25T05:11:02.629Z,78.73
2023-02-25T05:13:29.414Z,78.54
2023-02-25T05:16:10.798Z,79.47
2023-02-25T05:18:43.088Z,79.04
2023-02-25T05:21:21.729Z,79.49
2023-02-25T05:23:49.813Z,78.46
2023-02-25T05:26:21.390Z,79.28
2023-02-25T05:28:53.170Z,78.53
2023-02-25T05:31:21.416Z,78.75
2023-02-25T05:33:47.991Z,79.17
2023-02-25T05:36:15.611Z,78.88
2023-02-25T05:38:42.651Z,79.18
2023-02-25T05:41:11.541Z,79.85
2023-02-25T05:43:39.193Z,78.79
2023-02-25T05:46:11.486Z,78.98
2023-02-25T05:48:39.658Z,79.48
2023-02-25T05:51:10.578Z,78.42
2023-02-25T05:53:37.538Z,79.02
2023-02-25T05:56:09.617Z,78.13
2023-02-25T05:58:36.367Z,77.32
2023-02-25T06:01:11.254Z,77.08
2023-02-25T06:03:38.794Z,77.93
2023-02-25T06:06:06.839Z,78.21
2023-02-25T06:08:34.275Z,78.82
2023-02-25T06:11:01.769Z,78.43
2023-02-25T06:13:28.478Z,77.96
2023-02-25T06:15:55.051Z,77.88
2023-02-25T06:18:21.836Z,77.07
2023-02-25T06:20:48.346Z,77.75
2023-02-25T06:23:14.990Z,77.53
2023-02-25T06:25:41.472Z,78.18
2023-02-25T06:28:08.053Z,77.61
2023-02-25T06:30:34.625Z,76.90
2023-02-25T06:33:01.283Z,76.58
2023-02-25T06:35:28.300Z,76.95
2023-02-25T06:37:57.211Z,76.96
2023-02-25T06:40:23.845Z,77.15
2023-02-25T06:42:50.471Z,77.17
2023-02-25T06:45:17.123Z,76.64
2023-02-25T06:47:43.726Z,76.37
2023-02-25T06:50:11.083Z,77.10
2023-02-25T06:52:37.862Z,76.35
2023-02-25T06:55:06.688Z,76.77
2023-02-25T06:57:36.497Z,76.25
2023-02-25T07:00:05.539Z,76.12
2023-02-25T07:02:32.548Z,76.36
2023-02-25T07:05:01.145Z,76.53
2023-02-25T07:07:27.627Z,76.76
2023-02-25T07:09:54.476Z,77.13
2023-02-25T07:12:20.968Z,75.98
2023-02-25T07:14:47.559Z,76.37
2023-02-25T07:17:14.125Z,77.14
2023-02-25T07:19:40.652Z,76.98
2023-02-25T07:22:14.156Z,78.49
2023-02-25T07:24:40.850Z,78.25
2023-02-25T07:27:08.011Z,77.90
2023-02-25T07:29:34.594Z,77.98
2023-02-25T07:32:01.323Z,78.00
2023-02-25T07:34:27.961Z,78.71
2023-02-25T07:36:54.430Z,78.08
2023-02-25T07:39:21.017Z,78.55
2023-02-25T07:41:48.593Z,79.81
2023-02-25T07:44:18.541Z,80.24
2023-02-25T07:46:45.077Z,80.41
2023-02-25T07:49:11.906Z,78.36
2023-02-25T07:51:38.438Z,78.84
2023-02-25T07:54:05.129Z,78.14
2023-02-25T07:56:31.951Z,78.45
2023-02-25T07:58:58.652Z,78.43
2023-02-25T08:01:29.459Z,78.67
2023-02-25T08:03:58.724Z,78.75
2023-02-25T08:06:26.586Z,78.32
2023-02-25T08:08:55.184Z,78.06
2023-02-25T08:11:24.129Z,78.67
2023-02-25T08:13:50.834Z,78.16
2023-02-25T08:16:20.160Z,77.36
2023-02-25T08:18:47.273Z,77.61
2023-02-25T08:21:17.825Z,77.34
2023-02-25T08:23:44.347Z,76.44
2023-02-25T08:26:10.875Z,77.43
2023-02-25T08:28:37.872Z,77.10
2023-02-25T08:31:07.855Z,76.26
2023-02-25T08:33:34.475Z,75.62
2023-02-25T08:36:15.960Z,75.38
2023-02-25T08:38:42.693Z,75.27
2023-02-25T08:41:09.400Z,75.37
2023-02-25T08:43:37.401Z,75.12
2023-02-25T08:46:06.240Z,75.23
2023-02-25T08:48:33.698Z,74.49
2023-02-25T08:51:10.439Z,75.21
2023-02-25T08:53:39.031Z,74.04
2023-02-25T08:56:11.135Z,73.86
2023-02-25T08:58:39.348Z,73.24
2023-02-25T09:01:14.396Z,74.11
2023-02-25T09:03:52.674Z,73.21
2023-02-25T09:06:25.451Z,73.94
2023-02-25T09:08:53.059Z,72.53
2023-02-25T09:11:19.968Z,73.25
2023-02-25T09:13:46.560Z,72.43
2023-02-25T09:16:17.437Z,71.45
2023-02-25T09:18:48.797Z,71.50
2023-02-25T09:21:15.547Z,71.75
2023-02-25T09:23:42.533Z,70.99
2023-02-25T09:26:09.506Z,73.05
2023-02-25T09:28:36.529Z,72.38
2023-02-25T09:31:03.518Z,72.11
2023-02-25T09:33:35.711Z,72.14
2023-02-25T09:36:14.433Z,73.14
2023-02-25T09:38:42.661Z,72.31
2023-02-25T09:41:30.217Z,71.48
2023-02-25T09:44:01.967Z,70.37
2023-02-25T09:46:30.710Z,70.58
2023-02-25T09:49:05.609Z,70.94
2023-02-25T09:51:45.894Z,70.42
2023-02-25T09:54:41.787Z,69.52
2023-02-25T09:57:12.995Z,69.90
2023-02-25T09:59:39.641Z,69.18
2023-02-25T10:02:25.800Z,69.41
2023-02-25T10:05:07.679Z,69.25
2023-02-25T10:07:51.102Z,69.70
2023-02-25T10:10:26.024Z,69.13
2023-02-25T10:13:06.050Z,68.69
2023-02-25T10:15:53.097Z,69.81
2023-02-25T10:18:57.136Z,70.84
2023-02-25T10:21:37.599Z,71.18
2023-02-25T10:24:29.757Z,70.69
2023-02-25T10:27:03.242Z,71.76
2023-02-25T10:29:38.757Z,73.11
2023-02-25T10:32:20.718Z,68.54
2023-02-25T10:34:49.671Z,71.06
2023-02-25T10:37:26.933Z,71.31
2023-02-25T10:39:58.892Z,67.34
2023-02-25T10:42:26.201Z,67.63
2023-02-25T10:44:53.743Z,68.70
2023-02-25T10:47:34.672Z,67.83
2023-02-25T10:50:27.705Z,67.06
2023-02-25T10:53:14.400Z,65.61
2023-02-25T10:55:52.302Z,65.21
2023-02-25T10:58:25.812Z,66.44
2023-02-25T11:00:59.267Z,65.78
2023-02-25T11:03:28.461Z,65.15
2023-02-25T11:06:13.095Z,65.56
2023-02-25T11:08:39.905Z,65.76
2023-02-25T11:11:22.791Z,66.17
2023-02-25T11:14:16.556Z,65.13
2023-02-25T11:16:45.447Z,63.97
2023-02-25T11:19:28.880Z,61.59
2023-02-25T11:21:58.948Z,63.00
2023-02-25T11:24:28.674Z,63.61
2023-02-25T11:26:55.444Z,62.87
2023-02-25T11:29:28.765Z,60.89
2023-02-25T11:32:12.620Z,61.43
2023-02-25T11:34:49.135Z,59.47
2023-02-25T11:37:36.906Z,57.98
2023-02-25T11:40:24.454Z,57.79
2023-02-25T11:43:00.321Z,56.58
2023-02-25T11:45:30.245Z,57.49
2023-02-25T11:47:57.693Z,58.97
2023-02-25T11:50:48.492Z,57.14
2023-02-25T11:53:20.745Z,58.41
2023-02-25T11:56:13.382Z,56.55
2023-02-25T11:59:06.960Z,57.40
2023-02-25T12:01:39.677Z,55.38
2023-02-25T12:04:31.111Z,51.17
2023-02-25T12:07:04.672Z,49.67
2023-02-25T12:10:13.335Z,48.72
2023-02-25T12:13:11.005Z,49.04
2023-02-25T12:16:02.567Z,47.96
2023-02-25T12:19:17.176Z,47.49
2023-02-25T12:22:02.371Z,46.50
2023-02-25T12:24:58.422Z,46.44
2023-02-25T12:27:36.169Z,44.93
2023-02-25T12:30:27.353Z,45.79
2023-02-25T12:33:27.673Z,46.59
2023-02-25T12:36:09.876Z,45.53
2023-02-25T12:39:15.659Z,46.33
2023-02-25T12:41:49.801Z,45.12
2023-02-25T12:44:53.886Z,46.26
2023-02-25T12:47:53.793Z,45.32
2023-02-25T12:50:43.706Z,45.04
2023-02-25T12:53:51.340Z,45.21
2023-02-25T12:56:34.213Z,43.57
2023-02-25T12:59:25.345Z,43.04
2023-02-25T13:02:04.132Z,44.14
2023-02-25T13:04:46.018Z,44.00
2023-02-25T13:07:37.145Z,43.82
2023-02-25T13:10:11.581Z,44.10
2023-02-25T13:13:00.630Z,42.76
2023-02-25T13:15:54.885Z,41.21
2023-02-25T13:18:50.579Z,42.13
2023-02-25T13:21:32.869Z,43.58
2023-02-25T13:24:31.707Z,43.35
2023-02-25T13:27:19.418Z,41.76
2023-02-25T13:29:57.986Z,39.75
2023-02-25T13:32:49.877Z,40.35
2023-02-25T13:35:52.018Z,40.32
2023-02-25T13:38:38.999Z,40.79
2023-02-25T13:41:42.150Z,40.92
2023-02-25T13:44:27.810Z,40.80
2023-02-25T13:47:25.418Z,41.31
2023-02-25T13:50:22.742Z,40.71
2023-02-25T13:53:21.663Z,40.28
2023-02-25T13:56:26.074Z,41.55
2023-02-25T13:59:16.356Z,40.40
2023-02-25T14:01:50.003Z,41.23
2023-02-25T14:04:44.585Z,39.57
2023-02-25T14:07:21.852Z,40.28
2023-02-25T14:10:32.195Z,40.47
2023-02-25T14:13:40.731Z,39.40
2023-02-25T14:16:39.032Z,38.37
2023-02-25T14:19:39.886Z,38.76
2023-02-25T14:22:34.222Z,37.28
2023-02-25T14:25:18.668Z,38.26
2023-02-25T14:28:13.543Z,38.88
2023-02-25T14:31:04.927Z,37.89
2023-02-25T14:33:56.338Z,37.13
2023-02-25T14:36:49.102Z,36.43
2023-02-25T14:39:31.024Z,36.86
2023-02-25T14:42:19.741Z,36.90
2023-02-25T14:45:00.958Z,36.35
2023-02-25T14:47:42.572Z,34.11
2023-02-25T14:50:15.790Z,34.77
2023-02-25T14:53:16.712Z,35.65
2023-02-25T14:55:49.302Z,36.36
2023-02-25T14:58:22.037Z,35.86
2023-02-25T15:01:20.154Z,34.84
2023-02-25T15:04:10.021Z,34.31
2023-02-25T15:06:49.901Z,35.30
2023-02-25T15:09:23.507Z,34.42
2023-02-25T15:11:53.107Z,35.18
2023-02-25T15:14:40.401Z,34.61
2023-02-25T15:17:28.927Z,35.21
2023-02-25T15:20:21.874Z,36.02
2023-02-25T15:23:09.847Z,35.06
2023-02-25T15:25:38.090Z,35.14
2023-02-25T15:28:30.440Z,33.79
2023-02-25T15:31:03.199Z,33.83
2023-02-25T15:33:45.380Z,32.60
2023-02-25T15:36:15.013Z,33.07
2023-02-25T15:38:56.153Z,33.81
2023-02-25T15:41:28.732Z,33.50
2023-02-25T15:44:07.873Z,33.65
2023-02-25T15:46:34.559Z,33.56
2023-02-25T15:49:22.372Z,32.95
2023-02-25T15:51:55.365Z,32.77
2023-02-25T15:54:28.204Z,33.41
2023-02-25T15:57:24.525Z,33.19
2023-02-25T15:59:57.391Z,33.06
2023-02-25T16:02:30.092Z,33.48
2023-02-25T16:05:01.786Z,32.98
2023-02-25T16:07:36.063Z,33.07
2023-02-25T16:10:09.069Z,32.64
2023-02-25T16:12:38.540Z,31.96
2023-02-25T16:15:06.220Z,32.65
2023-02-25T16:17:35.558Z,32.77
2023-02-25T16:20:23.042Z,32.26
2023-02-25T16:23:01.664Z,33.29
2023-02-25T16:25:46.976Z,32.19
2023-02-25T16:29:07.711Z,33.33
2023-02-25T16:31:38.924Z,32.77
2023-02-25T16:34:12.533Z,33.35
2023-02-25T16:36:53.626Z,33.68
2023-02-25T16:39:23.664Z,32.61
2023-02-25T16:41:52.159Z,33.18
2023-02-25T16:44:37.028Z,34.28
2023-02-25T16:47:20.140Z,33.85
2023-02-25T16:49:47.473Z,34.74
2023-02-25T16:52:19.742Z,33.94
2023-02-25T16:54:49.181Z,33.93
2023-02-25T16:57:24.590Z,33.32
2023-02-25T17:00:04.958Z,33.60
2023-02-25T17:02:31.611Z,34.09
2023-02-25T17:04:58.298Z,33.90
2023-02-25T17:07:27.862Z,34.08
2023-02-25T17:10:00.715Z,33.96
2023-02-25T17:12:33.222Z,33.75
2023-02-25T17:15:04.439Z,33.70
2023-02-25T17:17:34.439Z,33.62
2023-02-25T17:20:09.007Z,34.15
2023-02-25T17:22:37.795Z,33.84
2023-02-25T17:25:05.984Z,33.86
2023-02-25T17:27:33.780Z,33.74
2023-02-25T17:30:00.302Z,34.42
2023-02-25T17:32:29.853Z,34.42
2023-02-25T17:35:00.816Z,35.21
2023-02-25T17:37:30.242Z,34.77
2023-02-25T17:39:59.197Z,34.75
2023-02-25T17:42:32.270Z,35.13
2023-02-25T17:45:00.787Z,35.53
2023-02-25T17:47:33.183Z,35.22
2023-02-25T17:50:21.765Z,35.88
2023-02-25T17:52:48.888Z,36.18
2023-02-25T17:55:33.963Z,36.04
2023-02-25T17:58:01.880Z,36.00
2023-02-25T18:00:32.247Z,35.76
2023-02-25T18:03:21.594Z,35.89
2023-02-25T18:05:55.007Z,35.45
2023-02-25T18:08:54.840Z,35.36
2023-02-25T18:11:33.782Z,36.36
2023-02-25T18:14:43.606Z,36.35
2023-02-25T18:17:13.091Z,36.84
2023-02-25T18:19:42.243Z,36.55
2023-02-25T18:22:23.771Z,36.81
2023-02-25T18:25:00.194Z,37.39
2023-02-25T18:27:30.145Z,36.95
2023-02-25T18:30:00.241Z,36.00
2023-02-25T18:32:27.426Z,36.96
2023-02-25T18:34:54.129Z,37.33
2023-02-25T18:37:20.869Z,36.89
2023-02-25T18:39:48.246Z,36.82
2023-02-25T18:42:16.912Z,36.96
2023-02-25T18:44:45.509Z,37.50
2023-02-25T18:47:12.057Z,37.51
2023-02-25T18:49:38.672Z,37.65
2023-02-25T18:52:11.208Z,37.83
2023-02-25T18:54:37.802Z,37.49
2023-02-25T18:57:16.097Z,37.14
2023-02-25T18:59:42.617Z,37.64
2023-02-25T19:02:25.132Z,37.84
2023-02-25T19:04:53.019Z,37.61
2023-02-25T19:07:19.554Z,37.62
2023-02-25T19:09:46.169Z,37.40
2023-02-25T19:12:13.882Z,37.36
2023-02-25T19:14:42.671Z,37.81
2023-02-25T19:17:15.496Z,37.18
2023-02-25T19:19:46.297Z,38.10
2023-02-25T19:22:15.157Z,38.06
2023-02-25T19:24:43.308Z,37.89
2023-02-25T19:27:18.817Z,38.53
2023-02-25T19:29:47.452Z,38.27
2023-02-25T19:32:14.139Z,39.12
2023-02-25T19:34:42.031Z,39.07
2023-02-25T19:37:08.517Z,39.05
2023-02-25T19:39:35.105Z,39.70
2023-02-25T19:42:01.584Z,39.56
2023-02-25T19:44:28.133Z,39.39
2023-02-25T19:46:54.740Z,39.91
2023-02-25T19:49:21.453Z,39.78
2023-02-25T19:51:47.928Z,39.56
2023-02-25T19:54:14.558Z,40.43
2023-02-25T19:56:41.282Z,40.19
2023-02-25T19:59:11.700Z,39.85
2023-02-25T20:01:39.629Z,40.12
2023-02-25T20:04:07.595Z,39.98
2023-02-25T20:06:34.757Z,39.67
2023-02-25T20:09:07.067Z,40.08
2023-02-25T20:11:34.171Z,39.22
2023-02-25T20:14:01.613Z,39.60
2023-02-25T20:16:28.587Z,40.37
2023-02-25T20:18:57.547Z,40.19
2023-02-25T20:21:25.507Z,39.42
2023-02-25T20:23:53.160Z,39.89
2023-02-25T20:26:23.060Z,40.84
2023-02-25T20:28:52.917Z,40.61
2023-02-25T20:31:21.128Z,40.05
2023-02-25T20:33:53.466Z,39.46
2023-02-25T20:36:22.734Z,40.17
2023-02-25T20:39:23.989Z,39.79
2023-02-25T20:41:51.402Z,40.80
2023-02-25T20:44:18.156Z,40.50
2023-02-25T20:46:45.174Z,40.37
2023-02-25T20:49:17.919Z,39.91
2023-02-25T20:51:47.126Z,39.80
2023-02-25T20:54:16.993Z,40.93
2023-02-25T20:56:44.005Z,41.19
2023-02-25T20:59:12.728Z,42.06
2023-02-25T21:01:39.831Z,41.80
2023-02-25T21:04:06.730Z,42.21
2023-02-25T21:06:33.915Z,42.38
2023-02-25T21:09:00.935Z,42.08
2023-02-25T21:11:27.767Z,42.22
2023-02-25T21:13:54.763Z,41.75
2023-02-25T21:16:23.848Z,41.95
2023-02-25T21:18:51.516Z,42.17
2023-02-25T21:21:20.360Z,42.52
2023-02-25T21:23:47.347Z,42.84
2023-02-25T21:26:13.986Z,41.99
2023-02-25T21:28:41.331Z,41.99
2023-02-25T21:31:10.712Z,41.63
2023-02-25T21:33:40.445Z,40.85
2023-02-25T21:36:09.019Z,40.75
2023-02-25T21:38:36.796Z,40.73
2023-02-25T21:41:07.910Z,40.60
2023-02-25T21:43:35.029Z,40.04
2023-02-25T21:46:03.386Z,40.89
2023-02-25T21:48:30.982Z,40.78
2023-02-25T21:50:58.416Z,41.50
2023-02-25T21:53:27.409Z,40.74
2023-02-25T21:55:54.830Z,41.03
2023-02-25T21:58:22.745Z,40.35
2023-02-25T22:00:49.831Z,40.67
2023-02-25T22:03:16.725Z,40.17
2023-02-25T22:05:46.768Z,40.92
2023-02-25T22:08:14.303Z,40.31
2023-02-25T22:10:41.069Z,40.28
2023-02-25T22:13:08.352Z,40.20
2023-02-25T22:15:35.331Z,40.52
2023-02-25T22:18:02.394Z,40.78
2023-02-25T22:20:28.926Z,40.93
2023-02-25T22:22:57.845Z,41.75
2023-02-25T22:25:24.435Z,41.47
2023-02-25T22:27:51.992Z,41.68
2023-02-25T22:30:18.748Z,41.90
2023-02-25T22:32:45.301Z,41.80
2023-02-25T22:35:11.846Z,41.34
2023-02-25T22:37:38.414Z,41.60
2023-02-25T22:40:05.555Z,41.82
2023-02-25T22:42:32.245Z,41.58
2023-02-25T22:44:58.754Z,42.73
2023-02-25T22:47:25.372Z,42.62
2023-02-25T22:49:51.916Z,41.91
2023-02-25T22:52:18.445Z,42.34
2023-02-25T22:54:45.965Z,42.54
2023-02-25T22:57:12.517Z,42.57
2023-02-25T22:59:39.057Z,41.67
2023-02-25T23:02:05.609Z,42.10
2023-02-25T23:04:32.766Z,42.53
2023-02-25T23:07:00.884Z,42.45
2023-02-25T23:09:27.469Z,42.77
2023-02-25T23:11:55.076Z,42.82
2023-02-25T23:14:21.637Z,42.72
2023-02-25T23:16:48.448Z,42.68
2023-02-25T23:19:17.441Z,42.51
2023-02-25T23:21:44.634Z,42.55
2023-02-25T23:24:18.366Z,42.72
2023-02-25T23:26:47.351Z,42.53
2023-02-25T23:29:14.170Z,43.32
2023-02-25T23:31:46.784Z,43.78
2023-02-25T23:34:18.243Z,43.19
2023-02-25T23:36:45.152Z,41.72
2023-02-25T23:39:13.768Z,42.67
2023-02-25T23:41:40.858Z,42.68
2023-02-25T23:44:09.053Z,42.36
2023-02-25T23:46:36.314Z,42.48
2023-02-25T23:49:07.372Z,43.07
2023-02-25T23:51:34.518Z,42.52
2023-02-25T23:54:04.982Z,42.12
2023-02-25T23:56:32.908Z,43.34
2023-02-25T23:58:59.530Z,43.41
